Fairfax, Georgia
Current Conditions -  °F | °C
As of 1:35 AM on Friday 19 Dec 2014 (Local Time) from KAYS Reporting Station
Clear Clear  
Wind Chill: 47°   Ceiling: Unl
Heat Index: 47°   Visibility: 10mi
Dew Point: 45°   Wind: 0mph
Humidity: 91%   Direction: NA
Pressure: 30.12"   Gusts: NA
Location:  31.2383°N, 82.6391°W
Report Text: KAYS 190635Z AUTO 00000KT 10SM CLR 09/07 A3012 RMK AO2 T00850071
Loading
Personal Weather Stations






























Interactive Weather Map New forecast layout! Learn more

10-Day Weather Forecast

Advertisements
Track Severe Weather on mobile